Kuparuk, AK

10:27 AM AKST on February 19, 2018 (GMT -0900)
Ugnu Kuparuk | | Change Station
Active Advisory: Winter Weather Advisory

Elev 66 ft 70.33 °N, 149.60 °W | Updated 42 minutes ago

Overcast
Overcast
18 °F
Feels Like 6 °F
N
9
Wind Variable Wind from SW

Today
High -- | Low -- °F
--% Chance of Precip.
Yesterday
High -- | Low -- °F
Precip. -- in
Pressure 30.19 in
Visibility 10.0 miles
Clouds Overcast 3800 ft
Windchill 6 °F
Dew Point 16 °F
Humidity 93%
Rainfall 0.00 in
Snow Depth Not available.
9:13 AM 5:12 PM
Waxing Crescent, 15% visible
METAR PAKU 191845Z 23008KT 10SM R24/P6000FT OVC038 M08/M09 A3019
Pressure 30.19 in
Visibility 10.0 miles
Clouds Overcast 3800 ft
Windchill 6 °F
Dew Point 16 °F
Humidity 93%
Rainfall 0.00 in
Snow Depth Not available.
9:13 AM 5:12 PM
Waxing Crescent, 15% visible
METAR PAKU 191845Z 23008KT 10SM R24/P6000FT OVC038 M08/M09 A3019

Get Your Daily Forecast Email!

Thanks for signing up!

Be on the lookout for a verification email in your inbox.

You'll start receiving severe weather alerts in your inbox..

×

10-Day Weather Forecast

Almanac

Astronomy

Feb. 19, 2018 Rise Set
Actual Time
Civil Twilight
Nautical Twilight
Astronomical Twilight
Moon
Length of Visible Light
Length of Day
Tomorrow will be .
, % of the Moon is Illuminated

Today's Extremes

State Highs State Lows

Community

WunderPhotos

Category 6

Welcome to Category 6. This is the collective home for Weather Underground's featured writeups by Dr. Jeff Masters (right), Bob Henson (left), Chris Burt, and other regular contributors.

Nearby

Air Quality

  Air Quality AQ Index Pollutant
Not available.

Snow Depth

Station Depth Elevation

Earthquake Activity

City Distance Mag. Time & Date
Minimum magnitude displayed is 2.5.

Coastal Water Temperatures

Place Temperature

Stations

Nearby Weather Stations

Station Location Temp. Windchill Dew Point Humidity Wind Precip. Elev Updated Type
                   

Watches & Warnings

Winter Weather Advisory
Issued: 4:40 AM AKST Feb. 19, 2018 – National Weather Service

... Winter Weather Advisory in effect from 6 am Tuesday to 6 am
akst Wednesday...

* what... snow and blowing snow expected with areas of poor
visibility. Total snow accumulations of 3 inches are expected.

* Where... central Beaufort Sea coast.

* When... 6 am Tuesday to 6 am Wednesday.

* Additional details... winds gusting as high as 40 mph will
cause areas of blowing and drifting snow.

Precautionary/preparedness actions...

A Winter Weather Advisory for snow and blowing snow means periods
of snow and blowing snow will cause travel difficulties. The
latest Road conditions can be obtained by calling 5 1 1.